createdAt,value
2023-04-16T00:01:35.714Z,90.76
2023-04-16T00:04:03.793Z,91.28
2023-04-16T00:06:30.688Z,91.55
2023-04-16T00:08:57.425Z,91.32
2023-04-16T00:11:24.334Z,91.78
2023-04-16T00:13:50.991Z,91.90
2023-04-16T00:16:17.769Z,92.20
2023-04-16T00:18:44.528Z,92.39
2023-04-16T00:21:11.247Z,92.64
2023-04-16T00:23:38.235Z,92.46
2023-04-16T00:26:05.030Z,92.57
2023-04-16T00:28:31.684Z,92.52
2023-04-16T00:31:01.231Z,92.81
2023-04-16T00:33:30.095Z,92.96
2023-04-16T00:35:56.724Z,93.36
2023-04-16T00:38:23.454Z,93.38
2023-04-16T00:40:50.247Z,92.31
2023-04-16T00:43:23.288Z,92.76
2023-04-16T00:45:51.305Z,93.91
2023-04-16T00:48:20.408Z,93.66
2023-04-16T00:50:47.026Z,93.30
2023-04-16T00:53:15.532Z,92.11
2023-04-16T00:55:42.295Z,92.50
2023-04-16T00:58:08.981Z,92.67
2023-04-16T01:00:35.756Z,93.53
2023-04-16T01:03:02.567Z,94.03
2023-04-16T01:05:30.465Z,94.19
2023-04-16T01:08:00.730Z,95.83
2023-04-16T01:10:27.440Z,95.90
2023-04-16T01:12:54.087Z,95.69
2023-04-16T01:15:20.727Z,95.79
2023-04-16T01:17:47.719Z,95.84
2023-04-16T01:20:14.614Z,96.26
2023-04-16T01:22:41.186Z,97.00
2023-04-16T01:25:07.957Z,98.03
2023-04-16T01:27:34.660Z,98.31
2023-04-16T01:30:01.267Z,99.86
2023-04-16T01:32:27.844Z,99.08
2023-04-16T01:34:54.490Z,99.65
2023-04-16T01:37:21.120Z,99.60
2023-04-16T01:39:47.754Z,99.59
2023-04-16T01:42:14.407Z,100.00
2023-04-16T01:44:41.007Z,99.89
2023-04-16T01:47:08.250Z,100.00
2023-04-16T01:49:34.971Z,99.66
2023-04-16T01:52:01.553Z,99.64
2023-04-16T01:54:28.269Z,99.63
2023-04-16T01:56:54.829Z,99.87
2023-04-16T01:59:21.530Z,100.00
2023-04-16T02:01:48.278Z,100.00
2023-04-16T02:04:14.990Z,100.00
2023-04-16T02:06:41.698Z,100.00
2023-04-16T02:09:08.540Z,100.00
2023-04-16T02:11:35.495Z,100.00
2023-04-16T02:14:02.312Z,100.00
2023-04-16T02:16:28.968Z,100.00
2023-04-16T02:18:55.564Z,100.00
2023-04-16T02:21:22.248Z,100.00
2023-04-16T02:23:51.835Z,100.00
2023-04-16T02:26:18.724Z,100.00
2023-04-16T02:28:45.517Z,100.00
2023-04-16T02:31:12.122Z,100.00
2023-04-16T02:33:38.723Z,100.00
2023-04-16T02:36:05.821Z,100.00
2023-04-16T02:38:32.448Z,100.00
2023-04-16T02:40:59.449Z,100.00
2023-04-16T02:43:26.047Z,100.00
2023-04-16T02:45:52.811Z,100.00
2023-04-16T02:48:19.609Z,100.00
2023-04-16T02:50:46.331Z,100.00
2023-04-16T02:53:12.932Z,100.00
2023-04-16T02:55:39.573Z,100.00
2023-04-16T02:58:06.217Z,100.00
2023-04-16T03:00:32.837Z,100.00
2023-04-16T03:02:59.511Z,100.00
2023-04-16T03:05:26.180Z,99.93
2023-04-16T03:07:56.749Z,99.58
2023-04-16T03:10:24.175Z,99.26
2023-04-16T03:12:51.002Z,98.48
2023-04-16T03:15:17.797Z,97.71
2023-04-16T03:17:44.540Z,97.81
2023-04-16T03:20:11.582Z,97.39
2023-04-16T03:22:41.035Z,97.23
2023-04-16T03:25:08.294Z,97.24
2023-04-16T03:27:35.484Z,97.72
2023-04-16T03:30:02.560Z,97.47
2023-04-16T03:32:29.474Z,97.22
2023-04-16T03:34:56.083Z,97.46
2023-04-16T03:37:23.130Z,97.15
2023-04-16T03:39:49.763Z,97.32
2023-04-16T03:42:16.421Z,97.47
2023-04-16T03:44:43.146Z,97.64
2023-04-16T03:47:09.753Z,97.04
2023-04-16T03:49:36.356Z,96.89
2023-04-16T03:52:03.055Z,96.69
2023-04-16T03:54:29.742Z,96.14
2023-04-16T03:56:57.120Z,97.00
2023-04-16T03:59:23.787Z,96.93
2023-04-16T04:01:50.869Z,96.68
2023-04-16T04:04:17.708Z,96.76
2023-04-16T04:06:46.851Z,96.30
2023-04-16T04:09:15.082Z,96.15
2023-04-16T04:11:42.301Z,96.59
2023-04-16T04:14:09.196Z,95.99
2023-04-16T04:16:35.864Z,95.73
2023-04-16T04:19:02.706Z,95.58
2023-04-16T04:21:29.798Z,95.58
2023-04-16T04:23:56.423Z,95.06
2023-04-16T04:26:23.047Z,94.90
2023-04-16T04:28:50.387Z,94.69
2023-04-16T04:31:17.120Z,93.21
2023-04-16T04:33:43.756Z,94.24
2023-04-16T04:36:10.581Z,94.22
2023-04-16T04:38:37.339Z,93.66
2023-04-16T04:41:04.055Z,94.22
2023-04-16T04:43:30.664Z,93.97
2023-04-16T04:45:57.254Z,93.98
2023-04-16T04:48:26.843Z,93.59
2023-04-16T04:50:53.990Z,93.47
2023-04-16T04:53:20.770Z,93.67
2023-04-16T04:55:50.901Z,92.56
2023-04-16T04:58:19.653Z,92.99
2023-04-16T05:00:46.301Z,92.92
2023-04-16T05:03:13.150Z,92.49
2023-04-16T05:05:40.989Z,92.42
2023-04-16T05:08:07.891Z,91.85
2023-04-16T05:10:34.526Z,91.35
2023-04-16T05:13:01.293Z,90.85
2023-04-16T05:15:28.138Z,89.94
2023-04-16T05:17:56.275Z,89.94
2023-04-16T05:20:26.406Z,89.75
2023-04-16T05:22:53.090Z,88.70
2023-04-16T05:25:19.853Z,87.80
2023-04-16T05:27:46.581Z,86.36
2023-04-16T05:30:13.260Z,86.98
2023-04-16T05:32:41.392Z,85.97
2023-04-16T05:35:09.979Z,85.40
2023-04-16T05:37:36.774Z,85.80
2023-04-16T05:40:04.202Z,84.61
2023-04-16T05:42:31.140Z,85.15
2023-04-16T05:44:57.796Z,85.31
2023-04-16T05:47:24.744Z,85.06
2023-04-16T05:49:51.370Z,84.88
2023-04-16T05:52:18.082Z,84.23
2023-04-16T05:54:44.752Z,83.87
2023-04-16T05:57:11.783Z,84.89
2023-04-16T05:59:39.374Z,84.25
2023-04-16T06:02:06.942Z,84.00
2023-04-16T06:04:33.739Z,83.61
2023-04-16T06:07:00.952Z,83.73
2023-04-16T06:09:28.287Z,83.51
2023-04-16T06:11:55.505Z,83.01
2023-04-16T06:14:22.131Z,84.30
2023-04-16T06:16:49.271Z,82.24
2023-04-16T06:19:15.980Z,83.42
2023-04-16T06:21:42.647Z,82.16
2023-04-16T06:24:09.273Z,82.67
2023-04-16T06:26:35.861Z,81.09
2023-04-16T06:29:02.597Z,81.25
2023-04-16T06:31:30.150Z,81.29
2023-04-16T06:33:57.064Z,80.22
2023-04-16T06:36:23.709Z,80.38
2023-04-16T06:38:51.916Z,79.98
2023-04-16T06:41:18.595Z,80.55
2023-04-16T06:43:45.274Z,80.18
2023-04-16T06:46:11.940Z,79.96
2023-04-16T06:48:38.587Z,79.06
2023-04-16T06:51:05.373Z,78.17
2023-04-16T06:53:32.054Z,78.12
2023-04-16T06:55:58.684Z,78.81
2023-04-16T06:58:25.477Z,77.85
2023-04-16T07:00:52.202Z,77.77
2023-04-16T07:03:18.925Z,78.01
2023-04-16T07:05:45.666Z,78.54
2023-04-16T07:08:12.550Z,77.23
2023-04-16T07:10:39.307Z,77.40
2023-04-16T07:13:06.105Z,76.61
2023-04-16T07:15:32.730Z,75.40
2023-04-16T07:17:59.559Z,75.70
2023-04-16T07:20:26.511Z,74.89
2023-04-16T07:22:53.183Z,75.10
2023-04-16T07:25:19.889Z,74.33
2023-04-16T07:27:46.652Z,73.47
2023-04-16T07:30:13.308Z,72.21
2023-04-16T07:32:40.035Z,73.19
2023-04-16T07:35:07.052Z,72.08
2023-04-16T07:37:33.657Z,71.68
2023-04-16T07:40:00.903Z,72.58
2023-04-16T07:42:28.234Z,72.14
2023-04-16T07:44:55.566Z,70.38
2023-04-16T07:47:23.243Z,70.96
2023-04-16T07:49:50.761Z,70.55
2023-04-16T07:52:17.404Z,71.16
2023-04-16T07:54:44.010Z,70.10
2023-04-16T07:57:12.246Z,69.67
2023-04-16T07:59:38.821Z,68.03
2023-04-16T08:02:06.360Z,68.88
2023-04-16T08:04:33.406Z,69.10
2023-04-16T08:07:00.292Z,69.84
2023-04-16T08:09:28.675Z,69.33
2023-04-16T08:11:55.381Z,69.08
2023-04-16T08:14:21.997Z,70.38
2023-04-16T08:16:48.792Z,70.46
2023-04-16T08:19:15.421Z,69.94
2023-04-16T08:21:42.064Z,69.86
2023-04-16T08:24:08.751Z,69.65
2023-04-16T08:26:35.514Z,69.61
2023-04-16T08:29:02.151Z,69.29
2023-04-16T08:31:28.953Z,69.17
2023-04-16T08:33:55.794Z,70.30
2023-04-16T08:36:22.534Z,71.75
2023-04-16T08:38:49.317Z,71.21
2023-04-16T08:41:16.187Z,71.11
2023-04-16T08:43:45.699Z,69.71
2023-04-16T08:46:13.154Z,68.13
2023-04-16T08:48:42.927Z,68.90
2023-04-16T08:51:12.856Z,70.58
2023-04-16T08:53:47.886Z,72.78
2023-04-16T08:56:15.841Z,71.58
2023-04-16T08:58:42.651Z,72.42
2023-04-16T09:01:11.465Z,73.35
2023-04-16T09:03:38.567Z,72.56
2023-04-16T09:06:06.600Z,71.87
2023-04-16T09:08:36.195Z,72.38
2023-04-16T09:11:03.696Z,72.59
2023-04-16T09:13:31.867Z,72.81
2023-04-16T09:15:59.853Z,74.51
2023-04-16T09:18:28.227Z,73.59
2023-04-16T09:20:56.426Z,75.63
2023-04-16T09:23:23.251Z,74.67
2023-04-16T09:25:49.849Z,74.73
2023-04-16T09:28:42.276Z,74.78
2023-04-16T09:31:14.245Z,74.25
2023-04-16T09:33:41.123Z,73.53
2023-04-16T09:36:07.785Z,74.68
2023-04-16T09:38:48.285Z,73.75
2023-04-16T09:41:18.521Z,72.77
2023-04-16T09:43:55.605Z,72.76
2023-04-16T09:46:22.392Z,72.07
2023-04-16T09:48:49.093Z,70.79
2023-04-16T09:51:16.084Z,69.96
2023-04-16T09:53:42.757Z,68.31
2023-04-16T09:56:09.934Z,68.82
2023-04-16T09:58:37.409Z,67.62
2023-04-16T10:01:10.287Z,67.02
2023-04-16T10:03:39.307Z,66.72
2023-04-16T10:06:34.928Z,68.41
2023-04-16T10:09:09.657Z,68.67
2023-04-16T10:11:38.868Z,68.04
2023-04-16T10:14:05.841Z,66.45
2023-04-16T10:16:36.633Z,64.14
2023-04-16T10:19:03.520Z,65.32
2023-04-16T10:21:34.286Z,63.83
2023-04-16T10:24:01.787Z,63.48
2023-04-16T10:26:30.625Z,63.18
2023-04-16T10:28:59.374Z,63.11
2023-04-16T10:31:29.762Z,62.26
2023-04-16T10:33:57.939Z,58.53
2023-04-16T10:40:24.382Z,50.74
2023-04-16T10:43:01.677Z,48.51
2023-04-16T10:45:39.052Z,47.11
2023-04-16T10:48:08.692Z,47.42
2023-04-16T10:50:38.210Z,45.39
2023-04-16T10:53:25.890Z,46.18
2023-04-16T10:56:05.056Z,47.15
2023-04-16T10:58:34.963Z,46.04
2023-04-16T11:01:06.937Z,43.53
2023-04-16T11:03:33.774Z,42.15
2023-04-16T11:06:27.625Z,41.57
2023-04-16T11:08:55.415Z,43.18
2023-04-16T11:11:25.847Z,43.41
2023-04-16T11:13:57.228Z,40.70
2023-04-16T11:16:25.768Z,43.08
2023-04-16T11:18:53.918Z,40.74
2023-04-16T11:21:22.372Z,42.29
2023-04-16T11:23:53.565Z,42.46
2023-04-16T11:26:26.168Z,44.43
2023-04-16T11:28:56.231Z,43.86
2023-04-16T11:31:27.431Z,44.53
2023-04-16T11:33:56.479Z,47.86
2023-04-16T11:36:23.794Z,47.69
2023-04-16T11:39:02.221Z,48.28
2023-04-16T11:41:28.928Z,48.86
2023-04-16T11:43:55.542Z,48.50
2023-04-16T11:46:27.411Z,49.92
2023-04-16T11:48:58.695Z,50.94
2023-04-16T11:51:25.304Z,50.65
2023-04-16T11:53:53.348Z,49.77
2023-04-16T11:56:30.980Z,51.16
2023-04-16T11:59:08.675Z,50.26
2023-04-16T12:01:36.929Z,50.17
2023-04-16T12:04:04.508Z,48.71
2023-04-16T12:06:35.675Z,47.53
2023-04-16T12:09:23.204Z,47.82
2023-04-16T12:11:49.892Z,48.64
2023-04-16T12:14:19.719Z,47.27
2023-04-16T12:16:46.541Z,48.15
2023-04-16T12:19:13.780Z,47.79
2023-04-16T12:21:46.373Z,47.24
2023-04-16T12:24:15.147Z,48.21
2023-04-16T12:26:44.661Z,48.83
2023-04-16T12:29:17.880Z,48.91
2023-04-16T12:31:44.590Z,48.84
2023-04-16T12:34:18.663Z,48.19
2023-04-16T12:36:46.726Z,45.89
2023-04-16T12:39:14.989Z,45.82
2023-04-16T12:41:44.465Z,45.73
2023-04-16T12:44:16.619Z,47.50
2023-04-16T12:46:44.203Z,45.74
2023-04-16T12:49:11.677Z,46.61
2023-04-16T12:51:39.133Z,45.90
2023-04-16T12:54:07.679Z,45.14
2023-04-16T12:56:35.655Z,44.95
2023-04-16T12:59:05.431Z,45.95
2023-04-16T13:01:32.195Z,48.34
2023-04-16T13:03:59.090Z,48.27
2023-04-16T13:06:26.409Z,43.05
2023-04-16T13:08:53.033Z,43.07
2023-04-16T13:11:20.316Z,44.88
2023-04-16T13:13:46.963Z,44.73
2023-04-16T13:16:13.594Z,45.00
2023-04-16T13:18:43.066Z,43.85
2023-04-16T13:21:09.934Z,43.88
2023-04-16T13:23:36.621Z,42.00
2023-04-16T13:26:03.302Z,41.75
2023-04-16T13:28:29.881Z,39.24
2023-04-16T13:30:59.842Z,39.72
2023-04-16T13:33:26.909Z,38.75
2023-04-16T13:35:53.517Z,38.89
2023-04-16T13:38:20.304Z,40.78
2023-04-16T13:40:46.971Z,41.37
2023-04-16T13:43:13.942Z,42.05
2023-04-16T13:45:40.677Z,40.52
2023-04-16T13:48:07.302Z,40.72
2023-04-16T13:50:35.656Z,41.27
2023-04-16T13:53:02.354Z,43.66
2023-04-16T13:55:32.190Z,42.68
2023-04-16T13:57:58.890Z,43.29
2023-04-16T14:00:27.231Z,44.54
2023-04-16T14:02:54.087Z,44.70
2023-04-16T14:05:20.908Z,46.19
2023-04-16T14:07:47.569Z,47.22
2023-04-16T14:10:14.200Z,47.71
2023-04-16T14:15:27.540Z,47.83
2023-04-16T14:17:57.023Z,46.35
2023-04-16T14:20:23.748Z,46.53
2023-04-16T14:22:50.409Z,46.01
2023-04-16T14:25:17.292Z,45.39
2023-04-16T14:27:44.003Z,45.90
2023-04-16T14:30:12.408Z,47.82
2023-04-16T14:32:39.171Z,49.17
2023-04-16T14:35:06.585Z,49.16
2023-04-16T14:37:35.880Z,51.20
2023-04-16T14:40:07.749Z,54.04
2023-04-16T14:42:36.671Z,60.04
2023-04-16T14:45:06.535Z,61.54
2023-04-16T14:47:35.313Z,65.17
2023-04-16T14:50:03.364Z,70.30
2023-04-16T14:52:32.971Z,74.96
2023-04-16T14:54:59.791Z,75.54
2023-04-16T14:57:27.882Z,74.56
2023-04-16T14:59:54.528Z,72.35
2023-04-16T15:02:21.866Z,74.23
2023-04-16T15:04:48.735Z,73.95
2023-04-16T15:07:15.569Z,75.89
2023-04-16T15:09:42.356Z,75.16
2023-04-16T15:12:09.310Z,77.99
2023-04-16T15:14:36.102Z,77.17
2023-04-16T15:17:05.515Z,76.39
2023-04-16T15:19:32.275Z,73.84
2023-04-16T15:22:01.983Z,75.46
2023-04-16T15:24:28.643Z,74.91
2023-04-16T15:26:55.227Z,75.00
2023-04-16T15:29:22.160Z,77.43
2023-04-16T15:31:52.339Z,77.38
2023-04-16T15:34:18.931Z,76.46
2023-04-16T15:36:45.710Z,76.91
2023-04-16T15:39:12.552Z,77.20
2023-04-16T15:41:50.249Z,77.91
2023-04-16T15:44:26.234Z,76.92
2023-04-16T15:46:52.872Z,78.15
2023-04-16T15:49:19.491Z,76.19
2023-04-16T15:51:46.311Z,77.53
2023-04-16T15:54:12.902Z,77.83
2023-04-16T15:56:39.677Z,77.25
2023-04-16T15:59:06.569Z,77.60
2023-04-16T16:01:33.144Z,78.43
2023-04-16T16:04:00.115Z,78.72
2023-04-16T16:06:27.390Z,78.58
2023-04-16T16:08:54.728Z,80.28
2023-04-16T16:11:21.857Z,80.30
2023-04-16T16:13:48.589Z,81.07
2023-04-16T16:16:15.461Z,81.25
2023-04-16T16:18:42.334Z,81.68
2023-04-16T16:21:09.022Z,82.89
2023-04-16T16:23:36.139Z,83.28
2023-04-16T16:26:05.724Z,83.80
2023-04-16T16:28:39.832Z,83.58
2023-04-16T16:31:07.397Z,84.05
2023-04-16T16:33:34.114Z,83.73
2023-04-16T16:36:00.780Z,84.13
2023-04-16T16:38:27.707Z,84.10
2023-04-16T16:40:54.368Z,84.54
2023-04-16T16:43:23.762Z,84.63
2023-04-16T16:45:50.627Z,84.90
2023-04-16T16:48:17.311Z,84.79
2023-04-16T16:50:43.881Z,84.79
2023-04-16T16:53:10.609Z,85.21
2023-04-16T16:55:37.279Z,84.63
2023-04-16T16:58:04.610Z,84.91
2023-04-16T17:00:31.339Z,83.77
2023-04-16T17:02:58.178Z,84.54
2023-04-16T17:05:25.004Z,84.16
2023-04-16T17:07:51.742Z,84.31
2023-04-16T17:10:21.483Z,84.39
2023-04-16T17:12:49.898Z,84.82
2023-04-16T17:15:21.781Z,84.84
2023-04-16T17:17:48.877Z,84.35
2023-04-16T17:20:15.743Z,85.27
2023-04-16T17:22:42.713Z,86.07
2023-04-16T17:25:09.674Z,85.22
2023-04-16T17:27:41.986Z,84.53
2023-04-16T17:30:09.034Z,85.27
2023-04-16T17:32:35.983Z,85.36
2023-04-16T17:35:06.915Z,85.40
2023-04-16T17:37:33.667Z,85.37
2023-04-16T17:40:00.534Z,85.47
2023-04-16T17:42:27.133Z,85.29
2023-04-16T17:44:53.731Z,85.36
2023-04-16T17:47:20.436Z,85.56
2023-04-16T17:49:47.105Z,86.08
2023-04-16T17:52:13.725Z,86.33
2023-04-16T17:54:40.399Z,86.48
2023-04-16T17:57:07.139Z,86.08
2023-04-16T17:59:34.655Z,86.02
2023-04-16T18:02:01.374Z,86.55
2023-04-16T18:04:28.104Z,86.18
2023-04-16T18:06:54.871Z,85.99
2023-04-16T18:09:21.587Z,86.22
2023-04-16T18:11:49.484Z,87.21
2023-04-16T18:14:20.063Z,87.40
2023-04-16T18:16:49.951Z,87.08
2023-04-16T18:19:16.672Z,87.73
2023-04-16T18:21:43.432Z,87.24
2023-04-16T18:24:10.689Z,86.01
2023-04-16T18:26:37.782Z,86.58
2023-04-16T18:29:05.502Z,86.80
2023-04-16T18:31:32.361Z,84.43
2023-04-16T18:33:59.269Z,85.61
2023-04-16T18:36:27.002Z,84.50
2023-04-16T18:39:01.777Z,84.45
2023-04-16T18:41:30.880Z,84.88
2023-04-16T18:43:57.678Z,84.28
2023-04-16T18:46:25.323Z,84.22
2023-04-16T18:48:52.164Z,84.36
2023-04-16T18:51:18.820Z,83.97
2023-04-16T18:53:45.792Z,84.56
2023-04-16T18:56:12.865Z,84.63
2023-04-16T18:58:39.577Z,82.12
2023-04-16T19:01:11.023Z,82.38
2023-04-16T19:03:38.235Z,82.29
2023-04-16T19:06:05.922Z,81.85
2023-04-16T19:08:32.668Z,82.80
2023-04-16T19:10:59.692Z,82.12
2023-04-16T19:13:27.580Z,80.98
2023-04-16T19:16:01.796Z,80.37
2023-04-16T19:18:28.697Z,78.98
2023-04-16T19:21:01.508Z,79.60
2023-04-16T19:23:29.041Z,78.33
2023-04-16T19:25:57.089Z,76.91
2023-04-16T19:28:24.612Z,76.47
2023-04-16T19:30:53.226Z,77.11
2023-04-16T19:33:20.223Z,76.99
2023-04-16T19:35:47.386Z,76.40
2023-04-16T19:38:14.533Z,76.84
2023-04-16T19:40:45.521Z,76.28
2023-04-16T19:43:12.660Z,75.59
2023-04-16T19:45:53.576Z,75.50
2023-04-16T19:48:20.621Z,74.42
2023-04-16T19:50:47.710Z,74.56
2023-04-16T19:53:14.655Z,74.02
2023-04-16T19:55:42.015Z,74.48
2023-04-16T19:58:09.722Z,73.61
2023-04-16T20:00:38.938Z,73.81
2023-04-16T20:03:06.328Z,73.63
2023-04-16T20:05:36.617Z,73.43
2023-04-16T20:08:03.375Z,72.82
2023-04-16T20:10:31.603Z,72.72
2023-04-16T20:12:58.469Z,72.11
2023-04-16T20:15:25.126Z,71.93
2023-04-16T20:17:52.393Z,72.20
2023-04-16T20:20:19.159Z,71.96
2023-04-16T20:22:46.003Z,71.79
2023-04-16T20:25:14.359Z,70.92
2023-04-16T20:27:41.098Z,71.55
2023-04-16T20:30:08.455Z,71.88
2023-04-16T20:32:35.278Z,71.97
2023-04-16T20:35:02.065Z,70.95
2023-04-16T20:37:29.239Z,71.30
2023-04-16T20:39:56.364Z,70.39
2023-04-16T20:42:26.480Z,69.95
2023-04-16T20:44:56.464Z,70.86
2023-04-16T20:47:23.963Z,70.31
2023-04-16T20:49:50.766Z,70.02
2023-04-16T20:52:17.467Z,70.00
2023-04-16T20:54:44.356Z,70.28
2023-04-16T20:57:12.095Z,70.14
2023-04-16T20:59:38.718Z,70.18
2023-04-16T21:02:05.845Z,69.74
2023-04-16T21:04:35.150Z,70.07
2023-04-16T21:07:04.060Z,70.25
2023-04-16T21:09:31.528Z,70.28
2023-04-16T21:11:58.319Z,70.60
2023-04-16T21:14:25.005Z,70.27
2023-04-16T21:16:51.569Z,70.84
2023-04-16T21:19:18.240Z,71.16
2023-04-16T21:21:44.945Z,71.40
2023-04-16T21:24:11.676Z,71.83
2023-04-16T21:26:39.496Z,71.83
2023-04-16T21:29:06.198Z,71.83
2023-04-16T21:31:33.244Z,72.19
2023-04-16T21:33:59.946Z,73.29
2023-04-16T21:36:27.764Z,73.08
2023-04-16T21:38:54.543Z,73.05
2023-04-16T21:41:21.201Z,72.96
2023-04-16T21:43:47.814Z,73.26
2023-04-16T21:46:17.538Z,73.71
2023-04-16T21:48:44.963Z,74.13
2023-04-16T21:51:11.560Z,73.95
2023-04-16T21:53:39.106Z,73.69
2023-04-16T21:56:06.658Z,73.72
2023-04-16T21:58:33.298Z,74.27
2023-04-16T22:00:59.998Z,74.22
2023-04-16T22:03:28.185Z,74.45
2023-04-16T22:06:01.141Z,74.52
2023-04-16T22:08:28.906Z,75.00
2023-04-16T22:10:59.761Z,75.35
2023-04-16T22:13:26.573Z,75.60
2023-04-16T22:15:54.793Z,75.53
2023-04-16T22:18:22.168Z,76.52
2023-04-16T22:20:51.009Z,76.59
2023-04-16T22:23:17.707Z,76.85
2023-04-16T22:25:44.673Z,76.63
2023-04-16T22:28:11.415Z,77.14
2023-04-16T22:30:38.193Z,76.71
2023-04-16T22:33:05.050Z,76.57
2023-04-16T22:35:31.716Z,77.52
2023-04-16T22:37:58.369Z,77.57
2023-04-16T22:40:27.660Z,77.87
2023-04-16T22:42:54.264Z,77.89
2023-04-16T22:45:20.927Z,78.88
2023-04-16T22:47:47.688Z,78.08
2023-04-16T22:50:15.252Z,77.72
2023-04-16T22:52:41.965Z,78.45
2023-04-16T22:55:08.921Z,79.35
2023-04-16T22:57:35.597Z,79.56
2023-04-16T23:00:02.425Z,80.30
2023-04-16T23:02:29.280Z,81.19
2023-04-16T23:04:56.040Z,80.99
2023-04-16T23:07:22.637Z,81.32
2023-04-16T23:09:49.259Z,83.04
2023-04-16T23:12:16.065Z,84.79
2023-04-16T23:14:46.066Z,85.96
2023-04-16T23:17:13.847Z,85.28
2023-04-16T23:19:40.501Z,84.61
2023-04-16T23:22:07.272Z,84.31
2023-04-16T23:24:33.892Z,83.85
2023-04-16T23:27:01.148Z,82.37
2023-04-16T23:29:27.828Z,82.63
2023-04-16T23:31:54.490Z,82.13
2023-04-16T23:34:21.107Z,82.40
2023-04-16T23:36:47.836Z,81.64
2023-04-16T23:39:14.457Z,82.20
2023-04-16T23:41:42.233Z,81.79
2023-04-16T23:44:08.980Z,81.63
2023-04-16T23:46:35.708Z,82.17
2023-04-16T23:49:02.348Z,83.02
2023-04-16T23:51:28.961Z,82.25
2023-04-16T23:53:55.663Z,82.76
2023-04-16T23:56:22.249Z,82.22
2023-04-16T23:58:49.149Z,82.29
